Nevis, Minnesota
Current Conditions -  °F | °C
As of 4:53 AM on Thursday 27 Nov 2014 (Local Time) from KPKD Reporting Station
Clear Clear  
Wind Chill: -15°   Ceiling: Unl
Heat Index: -15°   Visibility: 10mi
Dew Point: -22°   Wind: 3mph
Humidity: 71%   Direction: 310°NW
Pressure: 30.45"   Gusts: NA
Location:  46.97°N, 94.84°W
Report Text: KPKD 271053Z AUTO 31003KT 10SM CLR M26/M30 A3045 RMK AO2 SLP358 I1000 T12611300
Loading
Personal Weather Stations






























Interactive Weather Map New forecast layout! Learn more

10-Day Weather Forecast

Advertisements
Track Severe Weather on mobile